sensor_id;sensor_type;location;lat;lon;timestamp;P1;durP1;ratioP1;P2;durP2;ratioP2
6029;SDS011;3043;42.682;23.376;2023-04-24T00:00:15;7.50;;;5.07;;
6029;SDS011;3043;42.682;23.376;2023-04-24T00:02:42;9.13;;;5.17;;
6029;SDS011;3043;42.682;23.376;2023-04-24T00:05:13;8.90;;;5.23;;
6029;SDS011;3043;42.682;23.376;2023-04-24T00:07:39;11.33;;;5.70;;
6029;SDS011;3043;42.682;23.376;2023-04-24T00:10:09;8.93;;;5.33;;
6029;SDS011;3043;42.682;23.376;2023-04-24T00:12:35;8.33;;;5.40;;
6029;SDS011;3043;42.682;23.376;2023-04-24T00:15:01;8.60;;;4.73;;
6029;SDS011;3043;42.682;23.376;2023-04-24T00:17:27;10.20;;;5.63;;
6029;SDS011;3043;42.682;23.376;2023-04-24T00:19:52;8.03;;;5.57;;
6029;SDS011;3043;42.682;23.376;2023-04-24T00:22:26;8.47;;;5.83;;
6029;SDS011;3043;42.682;23.376;2023-04-24T00:24:53;12.70;;;5.40;;
6029;SDS011;3043;42.682;23.376;2023-04-24T00:27:18;11.83;;;5.70;;
6029;SDS011;3043;42.682;23.376;2023-04-24T00:29:44;8.17;;;5.73;;
6029;SDS011;3043;42.682;23.376;2023-04-24T00:32:09;10.40;;;6.17;;
6029;SDS011;3043;42.682;23.376;2023-04-24T00:34:35;9.40;;;5.70;;
6029;SDS011;3043;42.682;23.376;2023-04-24T00:37:01;9.63;;;5.73;;
6029;SDS011;3043;42.682;23.376;2023-04-24T00:39:26;10.07;;;6.23;;
6029;SDS011;3043;42.682;23.376;2023-04-24T00:41:51;9.33;;;5.97;;
6029;SDS011;3043;42.682;23.376;2023-04-24T00:44:18;10.30;;;6.30;;
6029;SDS011;3043;42.682;23.376;2023-04-24T00:46:44;11.93;;;6.27;;
6029;SDS011;3043;42.682;23.376;2023-04-24T00:49:10;9.13;;;5.90;;
6029;SDS011;3043;42.682;23.376;2023-04-24T00:51:37;9.10;;;5.83;;
6029;SDS011;3043;42.682;23.376;2023-04-24T00:54:02;9.23;;;6.20;;
6029;SDS011;3043;42.682;23.376;2023-04-24T00:56:28;10.77;;;5.90;;
6029;SDS011;3043;42.682;23.376;2023-04-24T00:58:53;10.20;;;5.70;;
6029;SDS011;3043;42.682;23.376;2023-04-24T01:01:19;8.80;;;5.83;;
6029;SDS011;3043;42.682;23.376;2023-04-24T01:03:49;7.47;;;5.33;;
6029;SDS011;3043;42.682;23.376;2023-04-24T01:06:15;12.63;;;6.10;;
6029;SDS011;3043;42.682;23.376;2023-04-24T01:08:42;8.47;;;5.87;;
6029;SDS011;3043;42.682;23.376;2023-04-24T01:11:10;8.63;;;5.87;;
6029;SDS011;3043;42.682;23.376;2023-04-24T01:13:35;9.40;;;5.53;;
6029;SDS011;3043;42.682;23.376;2023-04-24T01:16:01;9.10;;;5.57;;
6029;SDS011;3043;42.682;23.376;2023-04-24T01:18:26;8.30;;;5.60;;
6029;SDS011;3043;42.682;23.376;2023-04-24T01:20:53;9.20;;;5.73;;
6029;SDS011;3043;42.682;23.376;2023-04-24T01:23:22;10.70;;;5.47;;
6029;SDS011;3043;42.682;23.376;2023-04-24T01:25:48;10.57;;;5.63;;
6029;SDS011;3043;42.682;23.376;2023-04-24T01:28:14;9.23;;;6.13;;
6029;SDS011;3043;42.682;23.376;2023-04-24T01:30:41;8.83;;;5.87;;
6029;SDS011;3043;42.682;23.376;2023-04-24T01:33:07;9.70;;;5.70;;
6029;SDS011;3043;42.682;23.376;2023-04-24T01:35:33;12.27;;;6.27;;
6029;SDS011;3043;42.682;23.376;2023-04-24T01:37:58;8.83;;;5.90;;
6029;SDS011;3043;42.682;23.376;2023-04-24T01:40:24;10.27;;;5.73;;
6029;SDS011;3043;42.682;23.376;2023-04-24T01:42:49;9.80;;;5.90;;
6029;SDS011;3043;42.682;23.376;2023-04-24T01:45:15;8.77;;;5.90;;
6029;SDS011;3043;42.682;23.376;2023-04-24T01:47:41;8.47;;;5.57;;
6029;SDS011;3043;42.682;23.376;2023-04-24T01:50:07;11.60;;;6.43;;
6029;SDS011;3043;42.682;23.376;2023-04-24T01:52:33;8.77;;;6.43;;
6029;SDS011;3043;42.682;23.376;2023-04-24T01:55:00;10.00;;;6.60;;
6029;SDS011;3043;42.682;23.376;2023-04-24T01:57:25;11.13;;;6.00;;
6029;SDS011;3043;42.682;23.376;2023-04-24T01:59:51;9.30;;;6.27;;
6029;SDS011;3043;42.682;23.376;2023-04-24T02:02:17;10.03;;;6.00;;
6029;SDS011;3043;42.682;23.376;2023-04-24T02:04:42;12.57;;;6.80;;
6029;SDS011;3043;42.682;23.376;2023-04-24T02:07:07;12.63;;;7.17;;
6029;SDS011;3043;42.682;23.376;2023-04-24T02:09:33;10.90;;;7.33;;
6029;SDS011;3043;42.682;23.376;2023-04-24T02:11:58;11.10;;;7.20;;
6029;SDS011;3043;42.682;23.376;2023-04-24T02:14:24;11.93;;;7.00;;
6029;SDS011;3043;42.682;23.376;2023-04-24T02:16:49;15.20;;;7.13;;
6029;SDS011;3043;42.682;23.376;2023-04-24T02:19:15;11.53;;;7.00;;
6029;SDS011;3043;42.682;23.376;2023-04-24T02:21:40;11.93;;;6.50;;
6029;SDS011;3043;42.682;23.376;2023-04-24T02:24:06;15.47;;;8.00;;
6029;SDS011;3043;42.682;23.376;2023-04-24T02:26:31;11.13;;;7.30;;
6029;SDS011;3043;42.682;23.376;2023-04-24T02:28:57;12.27;;;8.03;;
6029;SDS011;3043;42.682;23.376;2023-04-24T02:31:22;11.57;;;7.40;;
6029;SDS011;3043;42.682;23.376;2023-04-24T02:33:48;12.43;;;7.07;;
6029;SDS011;3043;42.682;23.376;2023-04-24T02:36:13;12.43;;;7.67;;
6029;SDS011;3043;42.682;23.376;2023-04-24T02:38:39;10.87;;;7.40;;
6029;SDS011;3043;42.682;23.376;2023-04-24T02:41:04;10.17;;;7.33;;
6029;SDS011;3043;42.682;23.376;2023-04-24T02:43:31;14.57;;;7.20;;
6029;SDS011;3043;42.682;23.376;2023-04-24T02:45:57;11.50;;;7.13;;
6029;SDS011;3043;42.682;23.376;2023-04-24T02:48:23;13.80;;;8.17;;
6029;SDS011;3043;42.682;23.376;2023-04-24T02:50:48;10.97;;;7.53;;
6029;SDS011;3043;42.682;23.376;2023-04-24T02:53:15;12.90;;;8.00;;
6029;SDS011;3043;42.682;23.376;2023-04-24T02:55:41;14.13;;;8.23;;
6029;SDS011;3043;42.682;23.376;2023-04-24T02:58:06;11.83;;;7.70;;
6029;SDS011;3043;42.682;23.376;2023-04-24T03:00:31;11.43;;;8.37;;
6029;SDS011;3043;42.682;23.376;2023-04-24T03:02:57;12.83;;;8.20;;
6029;SDS011;3043;42.682;23.376;2023-04-24T03:05:22;15.67;;;6.97;;
6029;SDS011;3043;42.682;23.376;2023-04-24T03:07:48;12.83;;;7.43;;
6029;SDS011;3043;42.682;23.376;2023-04-24T03:10:13;11.80;;;7.37;;
6029;SDS011;3043;42.682;23.376;2023-04-24T03:12:39;14.30;;;7.47;;
6029;SDS011;3043;42.682;23.376;2023-04-24T03:15:04;10.67;;;7.40;;
6029;SDS011;3043;42.682;23.376;2023-04-24T03:17:30;10.57;;;7.20;;
6029;SDS011;3043;42.682;23.376;2023-04-24T03:19:56;10.50;;;6.47;;
6029;SDS011;3043;42.682;23.376;2023-04-24T03:22:21;9.73;;;6.80;;
6029;SDS011;3043;42.682;23.376;2023-04-24T03:24:47;11.57;;;7.53;;
6029;SDS011;3043;42.682;23.376;2023-04-24T03:27:12;11.93;;;6.40;;
6029;SDS011;3043;42.682;23.376;2023-04-24T03:29:37;10.77;;;6.80;;
6029;SDS011;3043;42.682;23.376;2023-04-24T03:32:03;11.37;;;6.97;;
6029;SDS011;3043;42.682;23.376;2023-04-24T03:34:29;12.13;;;8.20;;
6029;SDS011;3043;42.682;23.376;2023-04-24T03:36:54;12.97;;;7.80;;
6029;SDS011;3043;42.682;23.376;2023-04-24T03:39:19;11.43;;;7.67;;
6029;SDS011;3043;42.682;23.376;2023-04-24T03:41:45;12.73;;;6.60;;
6029;SDS011;3043;42.682;23.376;2023-04-24T03:44:10;12.27;;;7.37;;
6029;SDS011;3043;42.682;23.376;2023-04-24T03:46:36;14.53;;;9.57;;
6029;SDS011;3043;42.682;23.376;2023-04-24T03:49:01;16.53;;;8.87;;
6029;SDS011;3043;42.682;23.376;2023-04-24T03:51:27;17.73;;;8.30;;
6029;SDS011;3043;42.682;23.376;2023-04-24T03:53:56;13.93;;;8.10;;
6029;SDS011;3043;42.682;23.376;2023-04-24T03:56:22;21.33;;;9.07;;
6029;SDS011;3043;42.682;23.376;2023-04-24T03:58:47;16.03;;;8.87;;
6029;SDS011;3043;42.682;23.376;2023-04-24T04:01:12;9.43;;;7.40;;
6029;SDS011;3043;42.682;23.376;2023-04-24T04:03:40;9.37;;;6.77;;
6029;SDS011;3043;42.682;23.376;2023-04-24T04:06:06;11.93;;;6.37;;
6029;SDS011;3043;42.682;23.376;2023-04-24T04:08:31;10.37;;;5.90;;
6029;SDS011;3043;42.682;23.376;2023-04-24T04:10:57;9.13;;;6.10;;
6029;SDS011;3043;42.682;23.376;2023-04-24T04:13:22;11.00;;;6.00;;
6029;SDS011;3043;42.682;23.376;2023-04-24T04:15:48;11.47;;;6.17;;
6029;SDS011;3043;42.682;23.376;2023-04-24T04:18:13;14.03;;;6.17;;
6029;SDS011;3043;42.682;23.376;2023-04-24T04:20:39;9.80;;;6.13;;
6029;SDS011;3043;42.682;23.376;2023-04-24T04:23:04;9.07;;;5.50;;
6029;SDS011;3043;42.682;23.376;2023-04-24T04:25:29;9.47;;;5.10;;
6029;SDS011;3043;42.682;23.376;2023-04-24T04:27:55;10.57;;;5.33;;
6029;SDS011;3043;42.682;23.376;2023-04-24T04:30:20;8.93;;;5.90;;
6029;SDS011;3043;42.682;23.376;2023-04-24T04:32:46;11.37;;;6.03;;
6029;SDS011;3043;42.682;23.376;2023-04-24T04:35:12;10.63;;;6.37;;
6029;SDS011;3043;42.682;23.376;2023-04-24T04:37:37;11.23;;;6.10;;
6029;SDS011;3043;42.682;23.376;2023-04-24T04:40:03;9.90;;;6.13;;
6029;SDS011;3043;42.682;23.376;2023-04-24T04:42:32;9.60;;;5.90;;
6029;SDS011;3043;42.682;23.376;2023-04-24T04:44:59;13.10;;;5.40;;
6029;SDS011;3043;42.682;23.376;2023-04-24T04:47:25;10.10;;;6.07;;
6029;SDS011;3043;42.682;23.376;2023-04-24T04:49:52;10.77;;;5.87;;
6029;SDS011;3043;42.682;23.376;2023-04-24T04:52:17;11.67;;;5.97;;
6029;SDS011;3043;42.682;23.376;2023-04-24T04:54:43;8.37;;;5.57;;
6029;SDS011;3043;42.682;23.376;2023-04-24T04:57:09;9.37;;;5.57;;
6029;SDS011;3043;42.682;23.376;2023-04-24T04:59:35;10.77;;;5.77;;
6029;SDS011;3043;42.682;23.376;2023-04-24T05:02:02;12.80;;;5.90;;
6029;SDS011;3043;42.682;23.376;2023-04-24T05:04:27;12.40;;;6.47;;
6029;SDS011;3043;42.682;23.376;2023-04-24T05:06:53;13.43;;;7.00;;
6029;SDS011;3043;42.682;23.376;2023-04-24T05:09:18;9.23;;;6.87;;
6029;SDS011;3043;42.682;23.376;2023-04-24T05:11:44;9.57;;;6.77;;
6029;SDS011;3043;42.682;23.376;2023-04-24T05:14:09;11.13;;;7.10;;
6029;SDS011;3043;42.682;23.376;2023-04-24T05:16:35;11.93;;;7.83;;
6029;SDS011;3043;42.682;23.376;2023-04-24T05:19:02;11.77;;;7.90;;
6029;SDS011;3043;42.682;23.376;2023-04-24T05:21:27;11.30;;;7.73;;
6029;SDS011;3043;42.682;23.376;2023-04-24T05:23:53;10.57;;;7.00;;
6029;SDS011;3043;42.682;23.376;2023-04-24T05:26:18;13.10;;;8.03;;
6029;SDS011;3043;42.682;23.376;2023-04-24T05:28:44;12.73;;;7.73;;
6029;SDS011;3043;42.682;23.376;2023-04-24T05:31:10;12.90;;;7.70;;
6029;SDS011;3043;42.682;23.376;2023-04-24T05:33:35;14.13;;;8.47;;
6029;SDS011;3043;42.682;23.376;2023-04-24T05:36:01;12.20;;;8.50;;
6029;SDS011;3043;42.682;23.376;2023-04-24T05:38:26;16.53;;;8.70;;
6029;SDS011;3043;42.682;23.376;2023-04-24T05:40:52;13.03;;;8.60;;
6029;SDS011;3043;42.682;23.376;2023-04-24T05:43:17;12.43;;;8.10;;
6029;SDS011;3043;42.682;23.376;2023-04-24T05:45:43;16.80;;;10.30;;
6029;SDS011;3043;42.682;23.376;2023-04-24T05:48:08;12.43;;;8.77;;
6029;SDS011;3043;42.682;23.376;2023-04-24T05:50:33;12.70;;;9.07;;
6029;SDS011;3043;42.682;23.376;2023-04-24T05:52:59;13.20;;;9.43;;
6029;SDS011;3043;42.682;23.376;2023-04-24T05:55:26;16.30;;;9.40;;
6029;SDS011;3043;42.682;23.376;2023-04-24T05:57:52;12.30;;;9.17;;
6029;SDS011;3043;42.682;23.376;2023-04-24T06:00:17;16.87;;;9.30;;
6029;SDS011;3043;42.682;23.376;2023-04-24T06:02:44;13.43;;;9.63;;
6029;SDS011;3043;42.682;23.376;2023-04-24T06:05:10;15.53;;;10.03;;
6029;SDS011;3043;42.682;23.376;2023-04-24T06:07:36;13.10;;;9.53;;
6029;SDS011;3043;42.682;23.376;2023-04-24T06:10:01;14.57;;;9.30;;
6029;SDS011;3043;42.682;23.376;2023-04-24T06:12:27;15.87;;;9.63;;
6029;SDS011;3043;42.682;23.376;2023-04-24T06:14:52;14.33;;;9.37;;
6029;SDS011;3043;42.682;23.376;2023-04-24T06:17:19;15.53;;;9.43;;
6029;SDS011;3043;42.682;23.376;2023-04-24T06:19:44;13.37;;;8.97;;
6029;SDS011;3043;42.682;23.376;2023-04-24T06:22:10;12.63;;;8.97;;
6029;SDS011;3043;42.682;23.376;2023-04-24T06:24:35;12.67;;;9.50;;
6029;SDS011;3043;42.682;23.376;2023-04-24T06:27:01;13.13;;;8.90;;
6029;SDS011;3043;42.682;23.376;2023-04-24T06:29:27;17.27;;;10.20;;
6029;SDS011;3043;42.682;23.376;2023-04-24T06:31:52;13.77;;;10.83;;
6029;SDS011;3043;42.682;23.376;2023-04-24T06:34:18;13.87;;;9.67;;
6029;SDS011;3043;42.682;23.376;2023-04-24T06:36:43;16.33;;;9.53;;
6029;SDS011;3043;42.682;23.376;2023-04-24T06:39:09;14.53;;;9.73;;
6029;SDS011;3043;42.682;23.376;2023-04-24T06:41:34;14.30;;;9.30;;
6029;SDS011;3043;42.682;23.376;2023-04-24T06:44:00;13.53;;;9.67;;
6029;SDS011;3043;42.682;23.376;2023-04-24T06:46:26;14.40;;;10.23;;
6029;SDS011;3043;42.682;23.376;2023-04-24T06:48:53;13.10;;;9.47;;
6029;SDS011;3043;42.682;23.376;2023-04-24T06:51:24;13.70;;;9.83;;
6029;SDS011;3043;42.682;23.376;2023-04-24T06:53:54;15.07;;;10.03;;
6029;SDS011;3043;42.682;23.376;2023-04-24T06:56:21;14.03;;;9.47;;
6029;SDS011;3043;42.682;23.376;2023-04-24T06:58:47;11.57;;;8.80;;
6029;SDS011;3043;42.682;23.376;2023-04-24T07:01:13;12.50;;;9.30;;
6029;SDS011;3043;42.682;23.376;2023-04-24T07:03:38;13.17;;;9.63;;
6029;SDS011;3043;42.682;23.376;2023-04-24T07:06:04;12.10;;;9.20;;
6029;SDS011;3043;42.682;23.376;2023-04-24T07:08:30;13.88;;;9.23;;
6029;SDS011;3043;42.682;23.376;2023-04-24T07:10:56;14.13;;;9.70;;
6029;SDS011;3043;42.682;23.376;2023-04-24T07:13:22;17.47;;;9.60;;
6029;SDS011;3043;42.682;23.376;2023-04-24T07:15:48;14.30;;;10.43;;
6029;SDS011;3043;42.682;23.376;2023-04-24T07:18:18;15.87;;;10.27;;
6029;SDS011;3043;42.682;23.376;2023-04-24T07:20:44;15.90;;;10.13;;
6029;SDS011;3043;42.682;23.376;2023-04-24T07:23:10;17.47;;;9.53;;
6029;SDS011;3043;42.682;23.376;2023-04-24T07:25:35;16.47;;;10.23;;
6029;SDS011;3043;42.682;23.376;2023-04-24T07:28:01;14.07;;;10.20;;
6029;SDS011;3043;42.682;23.376;2023-04-24T07:30:26;12.57;;;9.57;;
6029;SDS011;3043;42.682;23.376;2023-04-24T07:32:53;14.90;;;9.35;;
6029;SDS011;3043;42.682;23.376;2023-04-24T07:35:19;13.65;;;8.90;;
6029;SDS011;3043;42.682;23.376;2023-04-24T07:37:45;16.58;;;9.40;;
6029;SDS011;3043;42.682;23.376;2023-04-24T07:40:13;13.07;;;8.65;;
6029;SDS011;3043;42.682;23.376;2023-04-24T07:42:39;12.00;;;8.25;;
6029;SDS011;3043;42.682;23.376;2023-04-24T07:45:05;14.02;;;7.63;;
6029;SDS011;3043;42.682;23.376;2023-04-24T07:47:31;11.32;;;7.93;;
6029;SDS011;3043;42.682;23.376;2023-04-24T07:49:57;9.30;;;7.05;;
6029;SDS011;3043;42.682;23.376;2023-04-24T07:52:23;11.32;;;7.65;;
6029;SDS011;3043;42.682;23.376;2023-04-24T07:54:49;11.45;;;7.20;;
6029;SDS011;3043;42.682;23.376;2023-04-24T07:57:15;12.00;;;7.03;;
6029;SDS011;3043;42.682;23.376;2023-04-24T07:59:40;11.65;;;7.97;;
6029;SDS011;3043;42.682;23.376;2023-04-24T08:02:06;11.43;;;7.25;;
6029;SDS011;3043;42.682;23.376;2023-04-24T08:04:32;11.63;;;7.18;;
6029;SDS011;3043;42.682;23.376;2023-04-24T08:06:57;10.50;;;7.00;;
6029;SDS011;3043;42.682;23.376;2023-04-24T08:09:23;8.18;;;5.32;;
6029;SDS011;3043;42.682;23.376;2023-04-24T08:11:48;7.97;;;5.97;;
6029;SDS011;3043;42.682;23.376;2023-04-24T08:14:14;9.75;;;7.15;;
6029;SDS011;3043;42.682;23.376;2023-04-24T08:16:40;11.80;;;6.80;;
6029;SDS011;3043;42.682;23.376;2023-04-24T08:19:06;8.95;;;6.93;;
6029;SDS011;3043;42.682;23.376;2023-04-24T08:21:31;11.43;;;6.80;;
6029;SDS011;3043;42.682;23.376;2023-04-24T08:23:57;10.85;;;6.68;;
6029;SDS011;3043;42.682;23.376;2023-04-24T08:26:22;10.25;;;6.00;;
6029;SDS011;3043;42.682;23.376;2023-04-24T08:28:48;8.40;;;6.25;;
6029;SDS011;3043;42.682;23.376;2023-04-24T08:31:13;7.93;;;5.72;;
6029;SDS011;3043;42.682;23.376;2023-04-24T08:33:39;8.75;;;6.28;;
6029;SDS011;3043;42.682;23.376;2023-04-24T08:36:06;8.10;;;4.75;;
6029;SDS011;3043;42.682;23.376;2023-04-24T08:38:32;10.15;;;5.80;;
6029;SDS011;3043;42.682;23.376;2023-04-24T08:40:58;10.48;;;6.03;;
6029;SDS011;3043;42.682;23.376;2023-04-24T08:43:25;8.40;;;5.70;;
6029;SDS011;3043;42.682;23.376;2023-04-24T08:45:51;8.88;;;5.15;;
6029;SDS011;3043;42.682;23.376;2023-04-24T08:48:17;10.18;;;5.15;;
6029;SDS011;3043;42.682;23.376;2023-04-24T08:50:43;8.43;;;5.20;;
6029;SDS011;3043;42.682;23.376;2023-04-24T08:53:09;10.02;;;5.93;;
6029;SDS011;3043;42.682;23.376;2023-04-24T08:55:35;12.40;;;6.40;;
6029;SDS011;3043;42.682;23.376;2023-04-24T08:58:02;10.15;;;6.00;;
6029;SDS011;3043;42.682;23.376;2023-04-24T09:00:28;10.65;;;6.20;;
6029;SDS011;3043;42.682;23.376;2023-04-24T09:02:54;8.63;;;6.10;;
6029;SDS011;3043;42.682;23.376;2023-04-24T09:05:21;8.90;;;6.00;;
6029;SDS011;3043;42.682;23.376;2023-04-24T09:07:49;7.25;;;5.47;;
6029;SDS011;3043;42.682;23.376;2023-04-24T09:10:20;11.70;;;6.80;;
6029;SDS011;3043;42.682;23.376;2023-04-24T09:12:47;9.02;;;6.53;;
6029;SDS011;3043;42.682;23.376;2023-04-24T09:15:15;9.38;;;5.85;;
6029;SDS011;3043;42.682;23.376;2023-04-24T09:17:40;10.27;;;6.30;;
6029;SDS011;3043;42.682;23.376;2023-04-24T09:20:06;8.80;;;5.97;;
6029;SDS011;3043;42.682;23.376;2023-04-24T09:22:32;9.80;;;6.30;;
6029;SDS011;3043;42.682;23.376;2023-04-24T09:25:04;8.43;;;6.07;;
6029;SDS011;3043;42.682;23.376;2023-04-24T09:27:32;8.55;;;6.03;;
6029;SDS011;3043;42.682;23.376;2023-04-24T09:29:58;10.88;;;6.10;;
6029;SDS011;3043;42.682;23.376;2023-04-24T09:32:24;9.15;;;5.55;;
6029;SDS011;3043;42.682;23.376;2023-04-24T09:35:04;10.15;;;5.70;;
6029;SDS011;3043;42.682;23.376;2023-04-24T09:37:35;9.65;;;5.75;;
6029;SDS011;3043;42.682;23.376;2023-04-24T09:42:44;9.13;;;5.78;;
6029;SDS011;3043;42.682;23.376;2023-04-24T09:45:17;11.32;;;5.63;;
6029;SDS011;3043;42.682;23.376;2023-04-24T09:47:43;9.95;;;5.88;;
6029;SDS011;3043;42.682;23.376;2023-04-24T09:50:16;9.05;;;5.53;;
6029;SDS011;3043;42.682;23.376;2023-04-24T09:52:43;9.00;;;6.00;;
6029;SDS011;3043;42.682;23.376;2023-04-24T09:55:19;19.48;;;5.90;;
6029;SDS011;3043;42.682;23.376;2023-04-24T10:00:18;8.70;;;5.40;;
6029;SDS011;3043;42.682;23.376;2023-04-24T10:02:49;7.90;;;5.68;;
6029;SDS011;3043;42.682;23.376;2023-04-24T10:05:15;7.50;;;5.32;;
6029;SDS011;3043;42.682;23.376;2023-04-24T10:07:40;9.55;;;5.82;;
6029;SDS011;3043;42.682;23.376;2023-04-24T10:10:06;10.00;;;5.43;;
6029;SDS011;3043;42.682;23.376;2023-04-24T10:12:31;8.38;;;5.35;;
6029;SDS011;3043;42.682;23.376;2023-04-24T10:14:57;8.20;;;5.57;;
6029;SDS011;3043;42.682;23.376;2023-04-24T10:17:24;9.23;;;5.53;;
6029;SDS011;3043;42.682;23.376;2023-04-24T10:19:51;8.80;;;5.80;;
6029;SDS011;3043;42.682;23.376;2023-04-24T10:22:17;8.93;;;5.43;;
6029;SDS011;3043;42.682;23.376;2023-04-24T10:24:43;9.02;;;5.53;;
6029;SDS011;3043;42.682;23.376;2023-04-24T10:27:10;9.50;;;5.83;;
6029;SDS011;3043;42.682;23.376;2023-04-24T10:29:37;8.60;;;5.33;;
6029;SDS011;3043;42.682;23.376;2023-04-24T10:32:06;10.27;;;5.85;;
6029;SDS011;3043;42.682;23.376;2023-04-24T10:34:32;8.95;;;4.90;;
6029;SDS011;3043;42.682;23.376;2023-04-24T10:36:58;8.82;;;5.30;;
6029;SDS011;3043;42.682;23.376;2023-04-24T10:39:23;8.43;;;5.75;;
6029;SDS011;3043;42.682;23.376;2023-04-24T10:41:49;8.75;;;5.35;;
6029;SDS011;3043;42.682;23.376;2023-04-24T10:44:15;8.82;;;5.55;;
6029;SDS011;3043;42.682;23.376;2023-04-24T10:46:42;11.82;;;5.63;;
6029;SDS011;3043;42.682;23.376;2023-04-24T10:49:09;8.90;;;5.80;;
6029;SDS011;3043;42.682;23.376;2023-04-24T10:51:45;8.90;;;5.70;;
6029;SDS011;3043;42.682;23.376;2023-04-24T10:56:52;9.20;;;5.88;;
6029;SDS011;3043;42.682;23.376;2023-04-24T10:59:26;11.73;;;5.25;;
6029;SDS011;3043;42.682;23.376;2023-04-24T11:01:53;10.10;;;5.18;;
6029;SDS011;3043;42.682;23.376;2023-04-24T11:04:30;11.87;;;5.80;;
6029;SDS011;3043;42.682;23.376;2023-04-24T11:06:56;9.55;;;5.57;;
6029;SDS011;3043;42.682;23.376;2023-04-24T11:09:22;10.13;;;5.57;;
6029;SDS011;3043;42.682;23.376;2023-04-24T11:12:08;11.23;;;6.30;;
6029;SDS011;3043;42.682;23.376;2023-04-24T11:17:31;11.40;;;5.80;;
6029;SDS011;3043;42.682;23.376;2023-04-24T11:20:02;10.97;;;6.10;;
6029;SDS011;3043;42.682;23.376;2023-04-24T11:22:33;10.00;;;6.03;;
6029;SDS011;3043;42.682;23.376;2023-04-24T11:25:02;9.83;;;5.97;;
6029;SDS011;3043;42.682;23.376;2023-04-24T11:27:37;12.23;;;5.73;;
6029;SDS011;3043;42.682;23.376;2023-04-24T11:30:05;9.27;;;6.10;;
6029;SDS011;3043;42.682;23.376;2023-04-24T11:32:38;7.80;;;6.03;;
6029;SDS011;3043;42.682;23.376;2023-04-24T11:37:38;13.67;;;8.63;;
6029;SDS011;3043;42.682;23.376;2023-04-24T11:40:06;17.27;;;10.70;;
6029;SDS011;3043;42.682;23.376;2023-04-24T11:42:36;9.83;;;6.93;;
6029;SDS011;3043;42.682;23.376;2023-04-24T11:45:07;9.40;;;6.33;;
6029;SDS011;3043;42.682;23.376;2023-04-24T11:47:37;11.90;;;7.10;;
6029;SDS011;3043;42.682;23.376;2023-04-24T11:50:03;8.70;;;6.23;;
6029;SDS011;3043;42.682;23.376;2023-04-24T11:52:30;7.73;;;4.43;;
6029;SDS011;3043;42.682;23.376;2023-04-24T11:54:55;6.93;;;4.37;;
6029;SDS011;3043;42.682;23.376;2023-04-24T11:57:22;8.37;;;4.70;;
6029;SDS011;3043;42.682;23.376;2023-04-24T11:59:51;7.57;;;5.13;;
6029;SDS011;3043;42.682;23.376;2023-04-24T12:02:23;7.87;;;5.50;;
6029;SDS011;3043;42.682;23.376;2023-04-24T12:04:50;7.43;;;4.67;;
6029;SDS011;3043;42.682;23.376;2023-04-24T12:07:16;7.60;;;5.23;;
6029;SDS011;3043;42.682;23.376;2023-04-24T12:09:46;11.20;;;5.00;;
6029;SDS011;3043;42.682;23.376;2023-04-24T12:12:13;10.93;;;6.67;;
6029;SDS011;3043;42.682;23.376;2023-04-24T12:14:49;6.50;;;4.60;;
6029;SDS011;3043;42.682;23.376;2023-04-24T12:17:17;8.10;;;4.97;;
6029;SDS011;3043;42.682;23.376;2023-04-24T12:19:48;7.83;;;5.07;;
6029;SDS011;3043;42.682;23.376;2023-04-24T12:22:15;6.57;;;4.47;;
6029;SDS011;3043;42.682;23.376;2023-04-24T12:27:26;8.00;;;5.50;;
6029;SDS011;3043;42.682;23.376;2023-04-24T12:29:57;9.90;;;5.33;;
6029;SDS011;3043;42.682;23.376;2023-04-24T12:32:28;6.37;;;4.23;;
6029;SDS011;3043;42.682;23.376;2023-04-24T12:34:54;6.10;;;4.40;;
6029;SDS011;3043;42.682;23.376;2023-04-24T12:37:22;7.23;;;4.10;;
6029;SDS011;3043;42.682;23.376;2023-04-24T12:40:11;6.97;;;4.30;;
6029;SDS011;3043;42.682;23.376;2023-04-24T12:42:42;7.37;;;4.20;;
6029;SDS011;3043;42.682;23.376;2023-04-24T12:45:08;7.23;;;4.00;;
6029;SDS011;3043;42.682;23.376;2023-04-24T12:47:34;7.20;;;4.37;;
6029;SDS011;3043;42.682;23.376;2023-04-24T12:50:01;8.67;;;4.57;;
6029;SDS011;3043;42.682;23.376;2023-04-24T12:52:28;6.73;;;4.33;;
6029;SDS011;3043;42.682;23.376;2023-04-24T12:54:58;7.03;;;4.10;;
6029;SDS011;3043;42.682;23.376;2023-04-24T12:57:25;7.70;;;4.83;;
6029;SDS011;3043;42.682;23.376;2023-04-24T12:59:56;8.97;;;4.87;;
6029;SDS011;3043;42.682;23.376;2023-04-24T13:02:23;8.87;;;4.80;;
6029;SDS011;3043;42.682;23.376;2023-04-24T13:04:49;8.00;;;4.70;;
6029;SDS011;3043;42.682;23.376;2023-04-24T13:07:15;7.93;;;4.87;;
6029;SDS011;3043;42.682;23.376;2023-04-24T13:09:42;7.53;;;5.23;;
6029;SDS011;3043;42.682;23.376;2023-04-24T13:12:08;6.87;;;4.87;;
6029;SDS011;3043;42.682;23.376;2023-04-24T13:14:34;7.87;;;5.13;;
6029;SDS011;3043;42.682;23.376;2023-04-24T13:17:00;8.13;;;5.10;;
6029;SDS011;3043;42.682;23.376;2023-04-24T13:19:26;9.73;;;4.93;;
6029;SDS011;3043;42.682;23.376;2023-04-24T13:21:53;8.20;;;5.93;;
6029;SDS011;3043;42.682;23.376;2023-04-24T13:24:20;7.57;;;5.13;;
6029;SDS011;3043;42.682;23.376;2023-04-24T13:26:46;8.27;;;5.00;;
6029;SDS011;3043;42.682;23.376;2023-04-24T13:29:11;10.00;;;4.80;;
6029;SDS011;3043;42.682;23.376;2023-04-24T13:31:37;7.70;;;5.00;;
6029;SDS011;3043;42.682;23.376;2023-04-24T13:34:02;7.10;;;5.27;;
6029;SDS011;3043;42.682;23.376;2023-04-24T13:36:29;8.23;;;4.87;;
6029;SDS011;3043;42.682;23.376;2023-04-24T13:38:55;11.23;;;5.30;;
6029;SDS011;3043;42.682;23.376;2023-04-24T13:41:20;8.80;;;5.87;;
6029;SDS011;3043;42.682;23.376;2023-04-24T13:43:46;9.10;;;5.53;;
6029;SDS011;3043;42.682;23.376;2023-04-24T13:46:11;9.67;;;5.17;;
6029;SDS011;3043;42.682;23.376;2023-04-24T13:48:37;8.27;;;5.53;;
6029;SDS011;3043;42.682;23.376;2023-04-24T13:51:02;8.67;;;5.40;;
6029;SDS011;3043;42.682;23.376;2023-04-24T13:53:28;9.60;;;5.30;;
6029;SDS011;3043;42.682;23.376;2023-04-24T13:55:53;7.90;;;5.23;;
6029;SDS011;3043;42.682;23.376;2023-04-24T13:58:19;7.13;;;5.20;;
6029;SDS011;3043;42.682;23.376;2023-04-24T14:00:44;7.47;;;4.70;;
6029;SDS011;3043;42.682;23.376;2023-04-24T14:03:10;10.43;;;5.50;;
6029;SDS011;3043;42.682;23.376;2023-04-24T14:05:36;6.30;;;4.50;;
6029;SDS011;3043;42.682;23.376;2023-04-24T14:08:01;9.07;;;5.17;;
6029;SDS011;3043;42.682;23.376;2023-04-24T14:10:26;7.53;;;5.40;;
6029;SDS011;3043;42.682;23.376;2023-04-24T14:12:52;7.03;;;5.10;;
6029;SDS011;3043;42.682;23.376;2023-04-24T14:15:18;6.77;;;4.80;;
6029;SDS011;3043;42.682;23.376;2023-04-24T14:17:43;7.80;;;4.80;;
6029;SDS011;3043;42.682;23.376;2023-04-24T14:20:09;6.20;;;4.30;;
6029;SDS011;3043;42.682;23.376;2023-04-24T14:22:35;7.13;;;4.07;;
6029;SDS011;3043;42.682;23.376;2023-04-24T14:25:00;8.13;;;4.33;;
6029;SDS011;3043;42.682;23.376;2023-04-24T14:27:26;7.27;;;4.07;;
6029;SDS011;3043;42.682;23.376;2023-04-24T14:29:51;9.47;;;5.00;;
6029;SDS011;3043;42.682;23.376;2023-04-24T14:32:17;7.77;;;5.10;;
6029;SDS011;3043;42.682;23.376;2023-04-24T14:34:43;10.73;;;5.33;;
6029;SDS011;3043;42.682;23.376;2023-04-24T14:37:08;8.27;;;4.30;;
6029;SDS011;3043;42.682;23.376;2023-04-24T14:39:34;8.67;;;5.13;;
6029;SDS011;3043;42.682;23.376;2023-04-24T14:41:59;6.30;;;4.30;;
6029;SDS011;3043;42.682;23.376;2023-04-24T14:44:26;7.07;;;4.77;;
6029;SDS011;3043;42.682;23.376;2023-04-24T14:46:52;6.47;;;4.60;;
6029;SDS011;3043;42.682;23.376;2023-04-24T14:49:18;8.23;;;4.93;;
6029;SDS011;3043;42.682;23.376;2023-04-24T14:51:43;6.67;;;4.47;;
6029;SDS011;3043;42.682;23.376;2023-04-24T14:54:09;8.27;;;4.57;;
6029;SDS011;3043;42.682;23.376;2023-04-24T14:56:34;10.97;;;4.47;;
6029;SDS011;3043;42.682;23.376;2023-04-24T14:59:00;9.50;;;4.60;;
6029;SDS011;3043;42.682;23.376;2023-04-24T15:01:27;15.47;;;9.50;;
6029;SDS011;3043;42.682;23.376;2023-04-24T15:03:52;7.30;;;4.73;;